createdAt,value
2023-03-30T00:00:38.738Z,17.40
2023-03-30T00:05:57.090Z,14.40
2023-03-30T00:11:12.071Z,16.50
2023-03-30T00:16:15.708Z,16.50
2023-03-30T00:21:21.117Z,16.50
2023-03-30T00:26:24.836Z,16.20
2023-03-30T00:31:28.687Z,8.70
2023-03-30T00:36:37.462Z,13.00
2023-03-30T00:41:41.285Z,19.40
2023-03-30T00:46:44.933Z,15.50
2023-03-30T00:51:51.162Z,13.40
2023-03-30T00:56:54.801Z,10.20
2023-03-30T01:01:59.251Z,15.60
2023-03-30T01:07:04.818Z,14.60
2023-03-30T01:12:09.333Z,12.20
2023-03-30T01:17:37.778Z,14.30
2023-03-30T01:23:27.878Z,18.50
2023-03-30T01:28:43.419Z,11.50
2023-03-30T01:34:24.362Z,20.70
2023-03-30T01:39:49.486Z,12.30
2023-03-30T01:45:20.684Z,22.00
2023-03-30T01:50:40.351Z,18.30
2023-03-30T01:55:57.821Z,13.50
2023-03-30T02:01:04.643Z,15.80
2023-03-30T02:06:28.937Z,20.50
2023-03-30T02:11:34.558Z,14.70
2023-03-30T02:16:49.723Z,12.80
2023-03-30T02:21:55.391Z,22.50
2023-03-30T02:27:04.434Z,19.50
2023-03-30T02:37:49.199Z,12.90
2023-03-30T02:43:31.399Z,13.50
2023-03-30T02:48:41.911Z,21.30
2023-03-30T02:54:10.001Z,10.50
2023-03-30T02:59:42.327Z,21.00
2023-03-30T03:04:48.084Z,25.60
2023-03-30T03:09:52.183Z,21.60
2023-03-30T03:14:55.824Z,21.10
2023-03-30T03:19:59.448Z,18.30
2023-03-30T03:25:05.328Z,34.90
2023-03-30T03:30:10.112Z,20.50
2023-03-30T03:35:14.716Z,33.60
2023-03-30T03:40:18.746Z,27.00
2023-03-30T03:45:22.377Z,22.60
2023-03-30T03:50:26.572Z,26.80
2023-03-30T03:55:30.935Z,16.30
2023-03-30T04:00:35.481Z,22.10
2023-03-30T04:05:40.035Z,42.70
2023-03-30T04:10:44.530Z,65.70
2023-03-30T04:15:48.292Z,134.20
2023-03-30T04:20:52.219Z,64.90
2023-03-30T04:25:55.891Z,58.80
2023-03-30T04:31:06.488Z,29.90
2023-03-30T04:36:18.173Z,36.70
2023-03-30T04:41:26.911Z,43.50
2023-03-30T04:46:31.025Z,36.80
2023-03-30T04:51:35.145Z,38.60
2023-03-30T04:56:40.489Z,24.90
2023-03-30T05:01:46.633Z,24.00
2023-03-30T05:06:50.667Z,28.70
2023-03-30T05:11:54.911Z,33.30
2023-03-30T05:16:59.158Z,30.30
2023-03-30T05:22:03.103Z,27.10
2023-03-30T05:27:07.309Z,38.00
2023-03-30T05:32:11.590Z,32.60
2023-03-30T05:37:15.619Z,29.30
2023-03-30T05:42:19.582Z,42.60
2023-03-30T05:47:23.242Z,29.90
2023-03-30T05:52:31.145Z,23.90
2023-03-30T05:57:37.289Z,26.90
2023-03-30T06:02:41.250Z,26.90
2023-03-30T06:07:46.236Z,21.40
2023-03-30T06:12:50.035Z,16.80
2023-03-30T06:17:53.798Z,82.90
2023-03-30T06:22:57.448Z,35.30
2023-03-30T06:28:01.001Z,68.50
2023-03-30T06:33:05.266Z,56.00
2023-03-30T06:38:09.832Z,41.30
2023-03-30T06:43:24.153Z,21.70
2023-03-30T06:48:27.872Z,38.10
2023-03-30T06:53:31.945Z,48.00
2023-03-30T06:58:35.673Z,48.70
2023-03-30T07:03:41.605Z,39.00
2023-03-30T07:08:45.787Z,24.10
2023-03-30T07:13:49.505Z,35.10
2023-03-30T07:18:53.084Z,21.60
2023-03-30T07:23:57.165Z,39.40
2023-03-30T07:29:01.833Z,25.80
2023-03-30T07:34:05.653Z,27.60
2023-03-30T07:39:11.500Z,22.80
2023-03-30T07:44:15.334Z,33.20
2023-03-30T07:49:19.149Z,26.80
2023-03-30T07:54:23.079Z,23.50
2023-03-30T07:59:27.348Z,29.10
2023-03-30T08:04:31.909Z,21.70
2023-03-30T08:09:36.312Z,30.40
2023-03-30T08:14:40.304Z,37.50
2023-03-30T08:19:44.051Z,26.20
2023-03-30T08:24:47.629Z,19.70
2023-03-30T08:29:51.103Z,22.50
2023-03-30T08:34:55.374Z,22.80
2023-03-30T08:39:59.153Z,17.90
2023-03-30T08:45:05.729Z,37.10
2023-03-30T08:50:13.380Z,18.40
2023-03-30T08:55:46.474Z,33.80
2023-03-30T09:01:10.596Z,34.40
2023-03-30T09:06:49.809Z,30.20
2023-03-30T09:12:05.226Z,17.00
2023-03-30T09:17:25.520Z,18.70
2023-03-30T09:22:42.559Z,33.40
2023-03-30T09:28:10.153Z,31.30
2023-03-30T09:33:28.689Z,27.50
2023-03-30T09:38:32.966Z,25.80
2023-03-30T09:43:46.659Z,33.70
2023-03-30T09:48:50.932Z,29.90
2023-03-30T09:54:06.892Z,36.00
2023-03-30T09:59:45.923Z,32.00
2023-03-30T10:04:58.594Z,25.50
2023-03-30T10:10:31.916Z,26.00
2023-03-30T10:15:40.946Z,22.90
2023-03-30T10:20:52.140Z,21.80
2023-03-30T10:26:04.452Z,22.50
2023-03-30T10:31:17.152Z,19.60
2023-03-30T10:36:22.496Z,22.70
2023-03-30T10:41:26.476Z,19.10
2023-03-30T10:46:31.114Z,18.30
2023-03-30T10:52:16.722Z,13.30
2023-03-30T10:57:28.628Z,17.60
2023-03-30T11:02:35.256Z,21.30
2023-03-30T11:07:55.643Z,23.30
2023-03-30T11:13:22.742Z,20.30
2023-03-30T11:19:05.702Z,18.60
2023-03-30T11:24:22.526Z,14.50
2023-03-30T11:29:51.849Z,20.90
2023-03-30T11:35:14.131Z,13.60
2023-03-30T11:40:27.745Z,18.70
2023-03-30T11:46:03.608Z,27.50
2023-03-30T11:52:12.144Z,21.40
2023-03-30T11:57:31.282Z,25.50
2023-03-30T12:03:16.881Z,54.60
2023-03-30T12:08:42.901Z,31.70
2023-03-30T12:13:51.450Z,67.10
2023-03-30T12:19:29.996Z,24.80
2023-03-30T12:24:56.874Z,31.70
2023-03-30T12:30:27.169Z,32.90
2023-03-30T12:36:35.005Z,26.00
2023-03-30T12:41:50.220Z,20.80
2023-03-30T12:47:34.905Z,20.10
2023-03-30T12:53:06.995Z,18.10
2023-03-30T12:59:05.461Z,28.40
2023-03-30T13:04:26.965Z,22.20
2023-03-30T13:09:35.994Z,316.70
2023-03-30T13:14:42.149Z,207.60
2023-03-30T13:20:29.256Z,244.30
2023-03-30T13:25:44.979Z,164.90
2023-03-30T13:30:49.178Z,195.10
2023-03-30T13:36:15.421Z,266.70
2023-03-30T13:41:59.330Z,394.00
2023-03-30T13:47:39.855Z,419.30
2023-03-30T13:52:50.801Z,134.70
2023-03-30T13:58:13.897Z,72.90
2023-03-30T14:03:36.617Z,132.70
2023-03-30T14:08:48.196Z,109.30
2023-03-30T14:13:54.574Z,108.90
2023-03-30T14:19:20.906Z,82.90
2023-03-30T14:24:34.220Z,164.40
2023-03-30T14:29:47.151Z,147.90
2023-03-30T14:34:55.182Z,88.50
2023-03-30T14:39:59.088Z,40.10
2023-03-30T14:45:03.860Z,46.40
2023-03-30T14:50:11.948Z,72.10
2023-03-30T14:55:26.532Z,56.20
2023-03-30T15:00:48.973Z,135.80
2023-03-30T15:05:55.889Z,89.80
2023-03-30T15:11:23.258Z,83.50
2023-03-30T15:16:36.045Z,305.80
2023-03-30T15:21:58.427Z,219.50
2023-03-30T15:27:12.084Z,148.30
2023-03-30T15:32:28.185Z,168.30
2023-03-30T15:37:34.142Z,208.70
2023-03-30T15:42:38.251Z,254.00
2023-03-30T15:47:43.656Z,336.40
2023-03-30T15:52:50.890Z,468.20
2023-03-30T15:57:55.001Z,269.90
2023-03-30T16:03:02.385Z,210.10
2023-03-30T16:08:06.206Z,86.90
2023-03-30T16:13:13.200Z,231.20
2023-03-30T16:18:17.187Z,122.90
2023-03-30T16:23:21.453Z,168.30
2023-03-30T16:28:25.705Z,103.70
2023-03-30T16:33:30.240Z,98.50
2023-03-30T16:38:33.948Z,78.30
2023-03-30T16:43:37.665Z,162.50
2023-03-30T16:48:41.752Z,88.10
2023-03-30T16:53:45.533Z,143.80
2023-03-30T16:58:49.588Z,288.60
2023-03-30T17:03:54.369Z,254.50
2023-03-30T17:08:58.621Z,321.20
2023-03-30T17:14:04.793Z,299.30
2023-03-30T17:19:13.954Z,167.30
2023-03-30T17:24:17.985Z,115.90
2023-03-30T17:29:21.806Z,194.90
2023-03-30T17:38:24.589Z,334.20
2023-03-30T17:43:29.045Z,127.10
2023-03-30T17:53:00.479Z,255.10
2023-03-30T17:58:04.322Z,203.70
2023-03-30T18:03:08.083Z,122.60
2023-03-30T18:08:18.483Z,220.60
2023-03-30T18:13:24.345Z,147.70
2023-03-30T18:18:31.998Z,129.20
2023-03-30T18:23:36.215Z,92.90
2023-03-30T18:28:44.519Z,168.90
2023-03-30T18:33:49.931Z,157.00
2023-03-30T18:38:56.488Z,215.50
2023-03-30T18:44:00.402Z,203.30
2023-03-30T18:49:03.949Z,269.80
2023-03-30T18:54:11.354Z,209.70
2023-03-30T18:59:18.044Z,187.60
2023-03-30T19:04:32.490Z,163.60
2023-03-30T19:09:42.941Z,93.40
2023-03-30T19:14:47.763Z,111.80
2023-03-30T19:19:51.643Z,182.10
2023-03-30T19:24:58.379Z,106.20
2023-03-30T19:30:08.822Z,145.40
2023-03-30T19:35:15.281Z,102.80
2023-03-30T19:40:20.781Z,123.70
2023-03-30T19:45:25.221Z,149.50
2023-03-30T19:50:30.544Z,117.80
2023-03-30T19:55:37.296Z,114.80
2023-03-30T20:00:45.939Z,97.10
2023-03-30T20:05:51.370Z,131.00
2023-03-30T20:10:55.900Z,104.30
2023-03-30T20:16:06.938Z,97.30
2023-03-30T20:21:12.575Z,104.30
2023-03-30T20:26:19.574Z,126.20
2023-03-30T20:31:24.188Z,104.40
2023-03-30T20:36:29.066Z,98.70
2023-03-30T20:41:38.439Z,79.70
2023-03-30T20:51:50.997Z,66.70
2023-03-30T20:56:54.706Z,73.00
2023-03-30T21:01:59.459Z,80.30
2023-03-30T21:07:03.019Z,79.80
2023-03-30T21:12:08.800Z,76.50
2023-03-30T21:17:13.222Z,55.60
2023-03-30T21:22:19.175Z,107.90
2023-03-30T21:27:22.703Z,321.00
2023-03-30T21:32:26.332Z,127.80
2023-03-30T21:37:29.857Z,109.80
2023-03-30T21:42:35.649Z,113.20
2023-03-30T21:47:40.558Z,129.70
2023-03-30T21:52:44.251Z,141.10
2023-03-30T21:57:47.772Z,137.00
2023-03-30T22:02:51.282Z,102.60
2023-03-30T22:07:54.986Z,114.20
2023-03-30T22:12:58.553Z,129.90
2023-03-30T22:18:05.008Z,150.10
2023-03-30T22:23:08.628Z,121.80
2023-03-30T22:28:12.248Z,124.40
2023-03-30T22:33:17.655Z,120.70
2023-03-30T22:38:21.176Z,136.90
2023-03-30T22:43:24.705Z,76.20
2023-03-30T22:48:28.233Z,88.70
2023-03-30T22:53:32.918Z,75.50
2023-03-30T22:58:36.668Z,258.00
2023-03-30T23:03:40.388Z,595.10
2023-03-30T23:08:44.304Z,351.20
2023-03-30T23:13:52.597Z,314.90
2023-03-30T23:18:56.265Z,183.60
2023-03-30T23:24:05.054Z,141.40
2023-03-30T23:29:08.734Z,171.30
2023-03-30T23:34:13.765Z,121.70
2023-03-30T23:39:17.831Z,105.00
2023-03-30T23:44:21.652Z,90.20
2023-03-30T23:49:25.322Z,79.90
2023-03-30T23:54:31.902Z,96.00
2023-03-30T23:59:37.409Z,90.60
